sensor_id;sensor_type;location;lat;lon;timestamp;temperature;humidity
51021;DHT22;38907;45.562;8.856;2023-05-21T00:02:34;14.00;99.90
51021;DHT22;38907;45.562;8.856;2023-05-21T00:07:37;14.00;99.90
51021;DHT22;38907;45.562;8.856;2023-05-21T00:12:39;14.10;99.90
51021;DHT22;38907;45.562;8.856;2023-05-21T00:17:42;14.00;99.90
51021;DHT22;38907;45.562;8.856;2023-05-21T00:22:46;14.00;99.90
51021;DHT22;38907;45.562;8.856;2023-05-21T00:27:48;14.00;99.90
51021;DHT22;38907;45.562;8.856;2023-05-21T00:32:50;14.10;99.90
51021;DHT22;38907;45.562;8.856;2023-05-21T00:37:53;14.10;99.90
51021;DHT22;38907;45.562;8.856;2023-05-21T00:42:55;14.10;99.90
51021;DHT22;38907;45.562;8.856;2023-05-21T00:47:57;14.00;99.90
51021;DHT22;38907;45.562;8.856;2023-05-21T00:53:01;14.00;99.90
51021;DHT22;38907;45.562;8.856;2023-05-21T00:58:04;14.00;99.90
51021;DHT22;38907;45.562;8.856;2023-05-21T01:03:07;14.10;99.90
51021;DHT22;38907;45.562;8.856;2023-05-21T01:08:11;14.00;99.90
51021;DHT22;38907;45.562;8.856;2023-05-21T01:13:15;14.00;99.90
51021;DHT22;38907;45.562;8.856;2023-05-21T01:18:17;14.00;99.90
51021;DHT22;38907;45.562;8.856;2023-05-21T01:23:21;14.10;99.90
51021;DHT22;38907;45.562;8.856;2023-05-21T01:28:23;14.10;99.90
51021;DHT22;38907;45.562;8.856;2023-05-21T01:33:28;14.20;99.90
51021;DHT22;38907;45.562;8.856;2023-05-21T01:38:40;14.10;99.90
51021;DHT22;38907;45.562;8.856;2023-05-21T01:43:44;14.20;99.90
51021;DHT22;38907;45.562;8.856;2023-05-21T01:48:47;14.20;99.90
51021;DHT22;38907;45.562;8.856;2023-05-21T01:53:51;14.20;99.90
51021;DHT22;38907;45.562;8.856;2023-05-21T01:58:55;14.20;99.90
51021;DHT22;38907;45.562;8.856;2023-05-21T02:03:58;14.20;99.90
51021;DHT22;38907;45.562;8.856;2023-05-21T02:09:02;14.20;99.90
51021;DHT22;38907;45.562;8.856;2023-05-21T02:14:04;14.20;99.90
51021;DHT22;38907;45.562;8.856;2023-05-21T02:19:07;14.20;99.90
51021;DHT22;38907;45.562;8.856;2023-05-21T02:24:11;14.10;99.90
51021;DHT22;38907;45.562;8.856;2023-05-21T02:29:13;14.20;99.90
51021;DHT22;38907;45.562;8.856;2023-05-21T02:34:15;14.20;99.90
51021;DHT22;38907;45.562;8.856;2023-05-21T02:39:18;14.20;99.90
51021;DHT22;38907;45.562;8.856;2023-05-21T02:44:20;14.30;99.90
51021;DHT22;38907;45.562;8.856;2023-05-21T02:49:23;14.30;99.90
51021;DHT22;38907;45.562;8.856;2023-05-21T02:54:26;14.30;99.90
51021;DHT22;38907;45.562;8.856;2023-05-21T02:59:28;14.30;99.90
51021;DHT22;38907;45.562;8.856;2023-05-21T03:04:30;14.40;99.90
51021;DHT22;38907;45.562;8.856;2023-05-21T03:09:33;14.50;99.90
51021;DHT22;38907;45.562;8.856;2023-05-21T03:14:35;14.60;99.90
51021;DHT22;38907;45.562;8.856;2023-05-21T03:19:37;14.50;99.90
51021;DHT22;38907;45.562;8.856;2023-05-21T03:24:40;14.60;99.90
51021;DHT22;38907;45.562;8.856;2023-05-21T03:29:44;14.60;99.90
51021;DHT22;38907;45.562;8.856;2023-05-21T03:34:46;14.70;99.90
51021;DHT22;38907;45.562;8.856;2023-05-21T03:39:49;14.80;99.90
51021;DHT22;38907;45.562;8.856;2023-05-21T03:44:51;14.70;99.90
51021;DHT22;38907;45.562;8.856;2023-05-21T03:49:53;14.80;99.90
51021;DHT22;38907;45.562;8.856;2023-05-21T03:54:56;14.80;99.90
51021;DHT22;38907;45.562;8.856;2023-05-21T03:59:58;14.80;99.90
51021;DHT22;38907;45.562;8.856;2023-05-21T04:05:00;14.80;99.90
51021;DHT22;38907;45.562;8.856;2023-05-21T04:10:05;14.70;99.90
51021;DHT22;38907;45.562;8.856;2023-05-21T04:15:08;14.60;99.90
51021;DHT22;38907;45.562;8.856;2023-05-21T04:20:10;14.50;99.90
51021;DHT22;38907;45.562;8.856;2023-05-21T04:25:14;14.40;99.90
51021;DHT22;38907;45.562;8.856;2023-05-21T04:30:16;14.30;99.90
51021;DHT22;38907;45.562;8.856;2023-05-21T04:35:19;14.20;99.90
51021;DHT22;38907;45.562;8.856;2023-05-21T04:40:24;14.20;99.90
51021;DHT22;38907;45.562;8.856;2023-05-21T04:45:26;14.30;99.90
51021;DHT22;38907;45.562;8.856;2023-05-21T04:50:28;14.30;99.90
51021;DHT22;38907;45.562;8.856;2023-05-21T04:55:32;14.30;99.90
51021;DHT22;38907;45.562;8.856;2023-05-21T05:00:39;14.20;99.90
51021;DHT22;38907;45.562;8.856;2023-05-21T05:05:41;14.20;99.90
51021;DHT22;38907;45.562;8.856;2023-05-21T05:10:44;14.20;99.90
51021;DHT22;38907;45.562;8.856;2023-05-21T05:15:46;14.30;99.90
51021;DHT22;38907;45.562;8.856;2023-05-21T05:20:48;14.30;99.90
51021;DHT22;38907;45.562;8.856;2023-05-21T05:25:51;14.40;99.90
51021;DHT22;38907;45.562;8.856;2023-05-21T05:30:53;14.40;99.90
51021;DHT22;38907;45.562;8.856;2023-05-21T05:35:55;14.40;99.90
51021;DHT22;38907;45.562;8.856;2023-05-21T05:40:58;14.40;99.90
51021;DHT22;38907;45.562;8.856;2023-05-21T05:46:00;14.40;99.90
51021;DHT22;38907;45.562;8.856;2023-05-21T05:51:02;14.40;99.90
51021;DHT22;38907;45.562;8.856;2023-05-21T05:56:06;14.50;99.90
51021;DHT22;38907;45.562;8.856;2023-05-21T06:01:08;14.60;99.90
51021;DHT22;38907;45.562;8.856;2023-05-21T06:06:10;14.70;99.90
51021;DHT22;38907;45.562;8.856;2023-05-21T06:11:13;14.70;99.90
51021;DHT22;38907;45.562;8.856;2023-05-21T06:16:18;14.80;99.90
51021;DHT22;38907;45.562;8.856;2023-05-21T06:21:20;14.80;99.90
51021;DHT22;38907;45.562;8.856;2023-05-21T06:26:23;15.00;99.90
51021;DHT22;38907;45.562;8.856;2023-05-21T06:31:25;15.00;99.90
51021;DHT22;38907;45.562;8.856;2023-05-21T06:36:27;15.10;99.90
51021;DHT22;38907;45.562;8.856;2023-05-21T06:41:35;15.10;99.90
51021;DHT22;38907;45.562;8.856;2023-05-21T06:46:41;15.20;99.90
51021;DHT22;38907;45.562;8.856;2023-05-21T06:51:44;15.30;99.90
51021;DHT22;38907;45.562;8.856;2023-05-21T06:56:47;15.30;99.90
51021;DHT22;38907;45.562;8.856;2023-05-21T07:01:49;15.40;99.90
51021;DHT22;38907;45.562;8.856;2023-05-21T07:06:51;15.50;99.90
51021;DHT22;38907;45.562;8.856;2023-05-21T07:11:55;15.60;99.90
51021;DHT22;38907;45.562;8.856;2023-05-21T07:16:57;15.70;99.90
51021;DHT22;38907;45.562;8.856;2023-05-21T07:21:58;15.80;99.90
51021;DHT22;38907;45.562;8.856;2023-05-21T07:27:02;15.80;99.90
51021;DHT22;38907;45.562;8.856;2023-05-21T07:32:06;15.80;99.90
51021;DHT22;38907;45.562;8.856;2023-05-21T07:37:07;15.90;99.90
51021;DHT22;38907;45.562;8.856;2023-05-21T07:42:11;16.00;99.90
51021;DHT22;38907;45.562;8.856;2023-05-21T07:47:12;16.10;99.90
51021;DHT22;38907;45.562;8.856;2023-05-21T07:52:14;16.20;99.90
51021;DHT22;38907;45.562;8.856;2023-05-21T07:57:17;16.40;99.90
51021;DHT22;38907;45.562;8.856;2023-05-21T08:02:19;16.60;99.90
51021;DHT22;38907;45.562;8.856;2023-05-21T08:07:21;16.60;99.90
51021;DHT22;38907;45.562;8.856;2023-05-21T08:12:24;16.70;99.90
51021;DHT22;38907;45.562;8.856;2023-05-21T08:17:26;16.80;99.90
51021;DHT22;38907;45.562;8.856;2023-05-21T08:22:28;16.80;99.90
51021;DHT22;38907;45.562;8.856;2023-05-21T08:27:32;16.80;99.90
51021;DHT22;38907;45.562;8.856;2023-05-21T08:32:33;16.90;99.90
51021;DHT22;38907;45.562;8.856;2023-05-21T08:37:35;17.00;99.90
51021;DHT22;38907;45.562;8.856;2023-05-21T08:42:42;17.10;99.90
51021;DHT22;38907;45.562;8.856;2023-05-21T08:47:45;17.00;99.90
51021;DHT22;38907;45.562;8.856;2023-05-21T08:52:47;17.00;99.90
51021;DHT22;38907;45.562;8.856;2023-05-21T08:57:53;17.00;99.90
51021;DHT22;38907;45.562;8.856;2023-05-21T09:02:57;17.00;99.90
51021;DHT22;38907;45.562;8.856;2023-05-21T09:08:04;17.00;99.90
51021;DHT22;38907;45.562;8.856;2023-05-21T09:13:09;17.00;99.90
51021;DHT22;38907;45.562;8.856;2023-05-21T09:18:12;16.90;99.90
51021;DHT22;38907;45.562;8.856;2023-05-21T09:23:16;16.90;99.90
51021;DHT22;38907;45.562;8.856;2023-05-21T09:28:19;16.90;99.90
51021;DHT22;38907;45.562;8.856;2023-05-21T09:33:25;17.00;99.90
51021;DHT22;38907;45.562;8.856;2023-05-21T09:38:28;17.10;99.90
51021;DHT22;38907;45.562;8.856;2023-05-21T09:43:32;17.10;99.90
51021;DHT22;38907;45.562;8.856;2023-05-21T09:48:35;17.10;99.90
51021;DHT22;38907;45.562;8.856;2023-05-21T09:53:49;17.20;99.90
51021;DHT22;38907;45.562;8.856;2023-05-21T09:58:53;17.10;99.90
51021;DHT22;38907;45.562;8.856;2023-05-21T10:03:57;17.00;99.90
51021;DHT22;38907;45.562;8.856;2023-05-21T10:09:02;16.90;99.90
51021;DHT22;38907;45.562;8.856;2023-05-21T10:14:09;16.90;99.90
51021;DHT22;38907;45.562;8.856;2023-05-21T10:19:15;16.80;99.90
51021;DHT22;38907;45.562;8.856;2023-05-21T10:24:17;16.70;99.90
51021;DHT22;38907;45.562;8.856;2023-05-21T10:29:22;16.70;99.90
51021;DHT22;38907;45.562;8.856;2023-05-21T10:34:24;16.80;99.90
51021;DHT22;38907;45.562;8.856;2023-05-21T10:39:26;16.90;99.90
51021;DHT22;38907;45.562;8.856;2023-05-21T10:44:36;17.00;99.90
51021;DHT22;38907;45.562;8.856;2023-05-21T10:49:58;17.10;99.90
51021;DHT22;38907;45.562;8.856;2023-05-21T10:55:12;17.30;99.90
51021;DHT22;38907;45.562;8.856;2023-05-21T11:00:19;17.40;99.90
51021;DHT22;38907;45.562;8.856;2023-05-21T11:05:49;17.50;99.90
51021;DHT22;38907;45.562;8.856;2023-05-21T11:10:52;17.70;99.90
51021;DHT22;38907;45.562;8.856;2023-05-21T11:16:13;17.80;99.90
51021;DHT22;38907;45.562;8.856;2023-05-21T11:21:17;18.00;99.90
51021;DHT22;38907;45.562;8.856;2023-05-21T11:26:21;18.20;99.90
51021;DHT22;38907;45.562;8.856;2023-05-21T11:31:24;18.30;99.90
51021;DHT22;38907;45.562;8.856;2023-05-21T11:36:27;18.40;99.90
51021;DHT22;38907;45.562;8.856;2023-05-21T11:41:29;18.60;99.90
51021;DHT22;38907;45.562;8.856;2023-05-21T11:46:33;18.80;99.90
51021;DHT22;38907;45.562;8.856;2023-05-21T11:51:35;19.00;99.90
51021;DHT22;38907;45.562;8.856;2023-05-21T11:56:37;19.20;99.90
51021;DHT22;38907;45.562;8.856;2023-05-21T12:01:43;19.40;99.90
51021;DHT22;38907;45.562;8.856;2023-05-21T12:06:45;19.40;99.90
51021;DHT22;38907;45.562;8.856;2023-05-21T12:11:50;19.40;99.90
51021;DHT22;38907;45.562;8.856;2023-05-21T12:16:53;19.60;99.90
51021;DHT22;38907;45.562;8.856;2023-05-21T12:21:55;19.80;99.90
51021;DHT22;38907;45.562;8.856;2023-05-21T12:26:58;20.00;99.90
51021;DHT22;38907;45.562;8.856;2023-05-21T12:32:04;20.30;99.90
51021;DHT22;38907;45.562;8.856;2023-05-21T12:37:09;20.40;99.90
51021;DHT22;38907;45.562;8.856;2023-05-21T12:42:12;20.40;99.90
51021;DHT22;38907;45.562;8.856;2023-05-21T12:47:17;20.50;99.90
51021;DHT22;38907;45.562;8.856;2023-05-21T12:52:19;20.70;99.90
51021;DHT22;38907;45.562;8.856;2023-05-21T12:57:23;20.60;99.90
51021;DHT22;38907;45.562;8.856;2023-05-21T13:02:28;20.50;99.90
51021;DHT22;38907;45.562;8.856;2023-05-21T13:07:33;20.50;99.90
51021;DHT22;38907;45.562;8.856;2023-05-21T13:12:36;20.70;99.90
51021;DHT22;38907;45.562;8.856;2023-05-21T13:17:40;20.70;99.90
51021;DHT22;38907;45.562;8.856;2023-05-21T13:22:43;20.70;99.90
51021;DHT22;38907;45.562;8.856;2023-05-21T13:27:47;20.60;99.90
51021;DHT22;38907;45.562;8.856;2023-05-21T13:32:51;20.90;99.90
51021;DHT22;38907;45.562;8.856;2023-05-21T13:37:53;21.00;99.90
51021;DHT22;38907;45.562;8.856;2023-05-21T13:42:55;21.10;99.90
51021;DHT22;38907;45.562;8.856;2023-05-21T13:47:59;21.40;99.90
51021;DHT22;38907;45.562;8.856;2023-05-21T13:53:01;21.50;99.90
51021;DHT22;38907;45.562;8.856;2023-05-21T13:58:03;21.60;99.90
51021;DHT22;38907;45.562;8.856;2023-05-21T14:03:06;21.60;99.90
51021;DHT22;38907;45.562;8.856;2023-05-21T14:08:10;21.70;99.90
51021;DHT22;38907;45.562;8.856;2023-05-21T14:13:12;21.80;99.90
51021;DHT22;38907;45.562;8.856;2023-05-21T14:18:15;22.00;99.90
51021;DHT22;38907;45.562;8.856;2023-05-21T14:23:17;22.00;99.90
51021;DHT22;38907;45.562;8.856;2023-05-21T14:28:19;21.90;99.90
51021;DHT22;38907;45.562;8.856;2023-05-21T14:33:23;21.70;99.90
51021;DHT22;38907;45.562;8.856;2023-05-21T14:38:26;21.80;99.90
51021;DHT22;38907;45.562;8.856;2023-05-21T14:43:28;22.10;99.90
51021;DHT22;38907;45.562;8.856;2023-05-21T14:48:33;22.00;99.90
51021;DHT22;38907;45.562;8.856;2023-05-21T14:53:35;22.10;99.90
51021;DHT22;38907;45.562;8.856;2023-05-21T14:58:37;22.00;99.90
51021;DHT22;38907;45.562;8.856;2023-05-21T15:03:40;22.10;99.90
51021;DHT22;38907;45.562;8.856;2023-05-21T15:08:45;22.20;99.90
51021;DHT22;38907;45.562;8.856;2023-05-21T15:13:48;22.10;99.90
51021;DHT22;38907;45.562;8.856;2023-05-21T15:18:52;21.80;99.90
51021;DHT22;38907;45.562;8.856;2023-05-21T15:23:54;22.00;99.90
51021;DHT22;38907;45.562;8.856;2023-05-21T15:28:56;22.20;99.90
51021;DHT22;38907;45.562;8.856;2023-05-21T15:33:59;22.30;99.90
51021;DHT22;38907;45.562;8.856;2023-05-21T15:39:01;22.40;99.90
51021;DHT22;38907;45.562;8.856;2023-05-21T15:44:03;22.50;99.90
51021;DHT22;38907;45.562;8.856;2023-05-21T15:49:07;22.40;99.90
51021;DHT22;38907;45.562;8.856;2023-05-21T15:54:08;22.40;99.90
51021;DHT22;38907;45.562;8.856;2023-05-21T15:59:10;22.50;99.90
51021;DHT22;38907;45.562;8.856;2023-05-21T16:04:14;22.50;99.90
51021;DHT22;38907;45.562;8.856;2023-05-21T16:09:17;22.60;99.90
51021;DHT22;38907;45.562;8.856;2023-05-21T16:14:19;22.70;99.90
51021;DHT22;38907;45.562;8.856;2023-05-21T16:19:22;22.60;99.90
51021;DHT22;38907;45.562;8.856;2023-05-21T16:24:24;22.60;99.90
51021;DHT22;38907;45.562;8.856;2023-05-21T16:29:26;22.30;99.90
51021;DHT22;38907;45.562;8.856;2023-05-21T16:34:29;22.20;99.90
51021;DHT22;38907;45.562;8.856;2023-05-21T16:39:31;22.30;99.90
51021;DHT22;38907;45.562;8.856;2023-05-21T16:44:33;22.20;99.90
51021;DHT22;38907;45.562;8.856;2023-05-21T16:49:37;21.90;99.90
51021;DHT22;38907;45.562;8.856;2023-05-21T16:54:39;21.80;99.90
51021;DHT22;38907;45.562;8.856;2023-05-21T16:59:42;21.60;99.90
51021;DHT22;38907;45.562;8.856;2023-05-21T17:04:45;21.40;99.90
51021;DHT22;38907;45.562;8.856;2023-05-21T17:09:47;21.30;99.90
51021;DHT22;38907;45.562;8.856;2023-05-21T17:14:49;21.20;99.90
51021;DHT22;38907;45.562;8.856;2023-05-21T17:19:53;21.20;99.90
51021;DHT22;38907;45.562;8.856;2023-05-21T17:24:54;21.10;99.90
51021;DHT22;38907;45.562;8.856;2023-05-21T17:29:56;20.90;99.90
51021;DHT22;38907;45.562;8.856;2023-05-21T17:35:02;20.80;99.90
51021;DHT22;38907;45.562;8.856;2023-05-21T17:40:08;20.70;99.90
51021;DHT22;38907;45.562;8.856;2023-05-21T17:45:10;20.70;99.90
51021;DHT22;38907;45.562;8.856;2023-05-21T17:50:14;20.60;99.90
51021;DHT22;38907;45.562;8.856;2023-05-21T17:55:16;20.50;99.90
51021;DHT22;38907;45.562;8.856;2023-05-21T18:00:19;20.40;99.90
51021;DHT22;38907;45.562;8.856;2023-05-21T18:05:22;20.20;99.90
51021;DHT22;38907;45.562;8.856;2023-05-21T18:10:24;20.10;99.90
51021;DHT22;38907;45.562;8.856;2023-05-21T18:15:29;19.90;99.90
51021;DHT22;38907;45.562;8.856;2023-05-21T18:20:36;19.80;99.90
51021;DHT22;38907;45.562;8.856;2023-05-21T18:25:38;19.50;99.90
51021;DHT22;38907;45.562;8.856;2023-05-21T18:30:40;19.30;99.90
51021;DHT22;38907;45.562;8.856;2023-05-21T18:35:44;19.10;99.90
51021;DHT22;38907;45.562;8.856;2023-05-21T18:40:46;19.00;99.90
51021;DHT22;38907;45.562;8.856;2023-05-21T18:45:47;19.00;99.90
51021;DHT22;38907;45.562;8.856;2023-05-21T18:50:51;18.80;99.90
51021;DHT22;38907;45.562;8.856;2023-05-21T18:55:53;18.70;99.90
51021;DHT22;38907;45.562;8.856;2023-05-21T19:00:55;18.60;99.90
51021;DHT22;38907;45.562;8.856;2023-05-21T19:05:58;18.60;99.90
51021;DHT22;38907;45.562;8.856;2023-05-21T19:11:02;18.60;99.90
51021;DHT22;38907;45.562;8.856;2023-05-21T19:16:05;18.50;99.90
51021;DHT22;38907;45.562;8.856;2023-05-21T19:21:11;18.40;99.90
51021;DHT22;38907;45.562;8.856;2023-05-21T19:26:13;18.30;99.90
51021;DHT22;38907;45.562;8.856;2023-05-21T19:31:15;18.30;99.90
51021;DHT22;38907;45.562;8.856;2023-05-21T19:36:19;18.20;99.90
51021;DHT22;38907;45.562;8.856;2023-05-21T19:41:21;18.30;99.90
51021;DHT22;38907;45.562;8.856;2023-05-21T19:46:24;18.20;99.90
51021;DHT22;38907;45.562;8.856;2023-05-21T19:51:27;18.10;99.90
51021;DHT22;38907;45.562;8.856;2023-05-21T19:56:29;18.00;99.90
51021;DHT22;38907;45.562;8.856;2023-05-21T20:01:31;17.90;99.90
51021;DHT22;38907;45.562;8.856;2023-05-21T20:06:36;17.90;99.90
51021;DHT22;38907;45.562;8.856;2023-05-21T20:11:39;17.70;99.90
51021;DHT22;38907;45.562;8.856;2023-05-21T20:16:41;17.60;99.90
51021;DHT22;38907;45.562;8.856;2023-05-21T20:21:47;17.40;99.90
51021;DHT22;38907;45.562;8.856;2023-05-21T20:26:49;17.40;99.90
51021;DHT22;38907;45.562;8.856;2023-05-21T20:31:51;17.40;99.90
51021;DHT22;38907;45.562;8.856;2023-05-21T20:36:54;17.30;99.90
51021;DHT22;38907;45.562;8.856;2023-05-21T20:41:57;17.20;99.90
51021;DHT22;38907;45.562;8.856;2023-05-21T20:47:00;17.00;99.90
51021;DHT22;38907;45.562;8.856;2023-05-21T20:52:05;16.90;99.90
51021;DHT22;38907;45.562;8.856;2023-05-21T20:57:07;16.90;99.90
51021;DHT22;38907;45.562;8.856;2023-05-21T21:02:16;16.80;99.90
51021;DHT22;38907;45.562;8.856;2023-05-21T21:07:20;16.80;99.90
51021;DHT22;38907;45.562;8.856;2023-05-21T21:12:22;17.00;99.90
51021;DHT22;38907;45.562;8.856;2023-05-21T21:17:24;16.90;99.90
51021;DHT22;38907;45.562;8.856;2023-05-21T21:22:29;16.80;99.90
51021;DHT22;38907;45.562;8.856;2023-05-21T21:27:31;16.90;99.90
51021;DHT22;38907;45.562;8.856;2023-05-21T21:32:33;16.90;99.90
51021;DHT22;38907;45.562;8.856;2023-05-21T21:37:36;16.80;99.90
51021;DHT22;38907;45.562;8.856;2023-05-21T21:42:39;16.90;99.90
51021;DHT22;38907;45.562;8.856;2023-05-21T21:47:42;16.90;99.90
51021;DHT22;38907;45.562;8.856;2023-05-21T21:52:46;16.80;99.90
51021;DHT22;38907;45.562;8.856;2023-05-21T21:57:48;16.80;99.90
51021;DHT22;38907;45.562;8.856;2023-05-21T22:02:51;16.90;99.90
51021;DHT22;38907;45.562;8.856;2023-05-21T22:07:54;16.90;99.90
51021;DHT22;38907;45.562;8.856;2023-05-21T22:12:56;16.90;99.90
51021;DHT22;38907;45.562;8.856;2023-05-21T22:17:58;17.00;99.90
51021;DHT22;38907;45.562;8.856;2023-05-21T22:23:03;17.10;99.90
51021;DHT22;38907;45.562;8.856;2023-05-21T22:28:05;17.20;99.90
51021;DHT22;38907;45.562;8.856;2023-05-21T22:33:07;17.20;99.90
51021;DHT22;38907;45.562;8.856;2023-05-21T22:38:10;17.30;99.90
51021;DHT22;38907;45.562;8.856;2023-05-21T22:43:12;17.30;99.90
51021;DHT22;38907;45.562;8.856;2023-05-21T22:48:14;17.30;99.90
51021;DHT22;38907;45.562;8.856;2023-05-21T22:53:19;17.30;99.90
51021;DHT22;38907;45.562;8.856;2023-05-21T22:58:21;17.20;99.90
51021;DHT22;38907;45.562;8.856;2023-05-21T23:03:22;17.00;99.90
51021;DHT22;38907;45.562;8.856;2023-05-21T23:08:26;16.80;99.90
51021;DHT22;38907;45.562;8.856;2023-05-21T23:13:27;16.80;99.90
51021;DHT22;38907;45.562;8.856;2023-05-21T23:18:29;16.70;99.90
51021;DHT22;38907;45.562;8.856;2023-05-21T23:23:33;16.70;99.90
51021;DHT22;38907;45.562;8.856;2023-05-21T23:28:35;16.60;99.90
51021;DHT22;38907;45.562;8.856;2023-05-21T23:33:38;16.70;99.90
51021;DHT22;38907;45.562;8.856;2023-05-21T23:38:42;16.80;99.90
51021;DHT22;38907;45.562;8.856;2023-05-21T23:43:44;16.80;99.90
51021;DHT22;38907;45.562;8.856;2023-05-21T23:48:45;16.90;99.90
51021;DHT22;38907;45.562;8.856;2023-05-21T23:53:49;17.00;99.90
51021;DHT22;38907;45.562;8.856;2023-05-21T23:58:51;17.20;99.90
